createdAt,value
2018-11-21T00:08:43.569Z,1008.3
2018-11-21T00:19:29.308Z,1008.4
2018-11-21T00:29:42.924Z,1008.6
2018-11-21T00:39:56.920Z,1008.4
2018-11-21T00:50:14.112Z,1008.5
2018-11-21T01:00:27.175Z,1008.4
2018-11-21T01:10:40.584Z,1008.5
2018-11-21T01:31:42.370Z,1008.7
2018-11-21T01:41:55.789Z,1008.9
2018-11-21T01:52:40.396Z,1008.9
2018-11-21T02:03:37.604Z,1009.1
2018-11-21T02:14:28.408Z,1009.1
2018-11-21T02:24:42.516Z,1009.1
2018-11-21T02:35:27.422Z,1009.1
2018-11-21T02:46:14.099Z,1009.2
2018-11-21T02:57:10.213Z,1009.2
2018-11-21T03:07:22.376Z,1009.0
2018-11-21T03:17:38.018Z,1009.2
2018-11-21T03:28:40.156Z,1009.3
2018-11-21T03:39:52.895Z,1009.5
2018-11-21T03:50:11.074Z,1009.7
2018-11-21T04:00:25.258Z,1009.9
2018-11-21T04:10:38.756Z,1010.0
2018-11-21T04:20:53.054Z,1010.0
2018-11-21T04:31:07.175Z,1010.1
2018-11-21T04:42:35.058Z,1010.4
2018-11-21T04:53:25.506Z,1010.5
2018-11-21T05:26:41.760Z,1010.6
2018-11-21T05:38:22.520Z,1010.9
2018-11-21T05:50:50.856Z,1010.8
2018-11-21T06:01:05.064Z,1011.0
2018-11-21T06:12:06.279Z,1011.3
2018-11-21T06:22:36.928Z,1011.3
2018-11-21T06:32:51.190Z,1011.4
2018-11-21T06:43:39.483Z,1011.5
2018-11-21T06:54:54.933Z,1011.7
2018-11-21T07:05:46.901Z,1011.8
2018-11-21T07:17:47.626Z,1012.2
2018-11-21T07:29:06.780Z,1012.2
2018-11-21T07:39:53.561Z,1012.4
2018-11-21T07:51:47.706Z,1012.4
2018-11-21T08:02:36.140Z,1012.5
2018-11-21T08:12:50.564Z,1012.7
2018-11-21T08:23:36.242Z,1012.7
2018-11-21T08:34:24.123Z,1012.8
2018-11-21T08:44:38.268Z,1012.8
2018-11-21T08:55:25.751Z,1012.8
2018-11-21T09:05:37.235Z,1013.0
2018-11-21T09:16:23.930Z,1013.1
2018-11-21T09:26:37.537Z,1013.2
2018-11-21T09:36:51.637Z,1013.4
2018-11-21T09:47:39.398Z,1013.4
2018-11-21T09:59:18.268Z,1013.4
2018-11-21T10:09:31.953Z,1013.5
2018-11-21T10:19:43.311Z,1013.6
2018-11-21T10:30:29.145Z,1013.5
2018-11-21T10:41:53.671Z,1013.6
2018-11-21T10:53:16.730Z,1013.7
2018-11-21T11:04:02.324Z,1013.7
2018-11-21T11:15:25.875Z,1013.6
2018-11-21T11:26:13.165Z,1013.7
2018-11-21T11:36:58.281Z,1013.9
2018-11-21T11:47:43.107Z,1013.8
2018-11-21T11:58:29.985Z,1013.9
2018-11-21T12:09:14.891Z,1013.9
2018-11-21T12:20:02.919Z,1013.7
2018-11-21T12:30:48.776Z,1013.6
2018-11-21T12:41:02.592Z,1013.7
2018-11-21T12:51:54.468Z,1013.7
2018-11-21T13:02:51.430Z,1013.8
2018-11-21T13:13:05.933Z,1014.0
2018-11-21T13:23:19.191Z,1014.1
2018-11-21T13:33:30.740Z,1014.0
2018-11-21T13:46:56.944Z,1014.0
2018-11-21T13:59:50.303Z,1014.0
2018-11-21T14:10:35.058Z,1014.1
2018-11-21T14:20:46.723Z,1014.2
2018-11-21T14:32:49.591Z,1014.1
2018-11-21T14:46:53.688Z,1014.3
2018-11-21T14:59:41.167Z,1014.5
2018-11-21T15:09:52.457Z,1014.6
2018-11-21T15:20:03.878Z,1014.6
2018-11-21T15:30:14.821Z,1014.8
2018-11-21T15:40:26.390Z,1014.7
2018-11-21T15:52:52.745Z,1014.7
2018-11-21T16:03:25.107Z,1014.8
2018-11-21T16:13:36.302Z,1014.9
2018-11-21T16:24:21.101Z,1014.7
2018-11-21T16:35:08.152Z,1015.0
2018-11-21T16:45:18.626Z,1015.1
2018-11-21T16:55:30.423Z,1015.2
2018-11-21T17:05:44.640Z,1015.5
2018-11-21T17:16:08.382Z,1015.6
2018-11-21T17:26:20.111Z,1015.5
2018-11-21T17:37:17.840Z,1015.6
2018-11-21T17:47:31.680Z,1015.5
2018-11-21T17:57:44.920Z,1015.5
2018-11-21T18:07:59.508Z,1015.6
2018-11-21T18:18:13.399Z,1015.5
2018-11-21T18:28:27.539Z,1015.6
2018-11-21T18:38:44.597Z,1015.7
2018-11-21T18:48:58.128Z,1015.7
2018-11-21T18:59:43.142Z,1015.7
2018-11-21T19:10:48.610Z,1015.9
2018-11-21T20:02:58.003Z,1016.2
2018-11-21T20:56:24.623Z,1016.4
2018-11-21T21:37:02.634Z,1016.5
2018-11-21T21:47:47.633Z,1016.5
2018-11-21T21:58:22.455Z,1016.5
2018-11-21T22:08:35.754Z,1016.5
2018-11-21T22:18:49.176Z,1016.5
2018-11-21T22:29:00.461Z,1016.5
2018-11-21T22:39:44.847Z,1016.5
2018-11-21T22:49:58.370Z,1016.4
2018-11-21T23:00:11.717Z,1016.6
2018-11-21T23:10:25.256Z,1016.6
2018-11-21T23:21:10.477Z,1016.6
2018-11-21T23:31:23.974Z,1016.6
2018-11-21T23:41:37.257Z,1016.7
2018-11-21T23:51:48.157Z,1016.7
